createdAt,value
2018-02-17T16:53:49.783Z,11.87
2018-02-17T16:56:02.794Z,11.13
2018-02-17T16:58:09.447Z,15.77
2018-02-17T17:00:34.304Z,10.50
2018-02-17T17:02:47.082Z,12.73
2018-02-17T17:04:51.572Z,13.43
2018-02-17T17:06:56.196Z,12.50
2018-02-17T17:09:00.266Z,14.10
2018-02-17T17:11:05.399Z,13.65
2018-02-17T17:13:10.643Z,13.57
2018-02-17T17:15:13.856Z,13.97
2018-02-17T17:17:17.920Z,12.47
2018-02-17T17:19:22.651Z,14.43
2018-02-17T17:21:32.494Z,11.17
2018-02-17T17:23:40.960Z,15.27
2018-02-17T17:25:44.113Z,10.90
2018-02-17T17:27:47.669Z,12.80
2018-02-17T17:30:00.570Z,10.47
2018-02-17T17:32:24.544Z,11.98
2018-02-17T17:54:32.060Z,10.07
2018-02-17T17:56:35.226Z,14.90
2018-02-17T17:58:38.419Z,12.07
2018-02-17T18:00:41.725Z,14.33
2018-02-17T18:02:44.890Z,11.57
2018-02-17T18:04:48.855Z,10.27
2018-02-17T18:06:52.057Z,11.67
2018-02-17T18:08:55.221Z,10.03
2018-02-17T18:10:59.260Z,14.10
2018-02-17T18:13:03.216Z,13.77
2018-02-17T18:15:06.410Z,13.10
2018-02-17T18:17:39.516Z,11.20
2018-02-17T18:19:42.701Z,9.33
2018-02-17T18:21:47.891Z,14.53
2018-02-17T18:23:52.816Z,16.52
2018-02-17T18:25:58.964Z,13.33
2018-02-17T18:28:02.990Z,11.20
2018-02-17T18:30:06.156Z,13.80
2018-02-17T18:32:09.675Z,12.77
2018-02-17T18:34:12.861Z,12.13
2018-02-17T18:36:16.058Z,10.13
2018-02-17T18:38:19.363Z,10.07
2018-02-17T18:40:22.533Z,9.27
2018-02-17T18:42:25.800Z,11.17
2018-02-17T18:44:29.076Z,10.80
2018-02-17T18:46:33.299Z,13.10
2018-02-17T18:48:36.617Z,9.30
2018-02-17T18:50:40.602Z,12.27
2018-02-17T18:52:44.067Z,11.43
2018-02-17T18:54:48.006Z,14.07
2018-02-17T18:56:51.269Z,11.00
2018-02-17T18:58:54.660Z,11.40
2018-02-17T19:00:57.891Z,11.80
2018-02-17T19:03:01.659Z,12.80
2018-02-17T19:05:04.870Z,15.10
2018-02-17T19:07:08.875Z,14.73
2018-02-17T19:09:12.089Z,12.67
2018-02-17T19:11:16.085Z,13.17
2018-02-17T19:13:19.307Z,13.52
2018-02-17T19:15:22.525Z,12.50
2018-02-17T19:17:25.726Z,14.60
2018-02-17T19:19:28.972Z,15.80
2018-02-17T19:21:32.961Z,13.67
2018-02-17T19:23:37.105Z,13.43
2018-02-17T19:25:40.340Z,14.30
2018-02-17T19:27:47.408Z,16.77
2018-02-17T19:29:51.685Z,17.70
2018-02-17T19:31:54.936Z,16.40
2018-02-17T19:33:58.117Z,34.43
2018-02-17T19:36:01.292Z,32.90
2018-02-17T19:38:05.329Z,23.87
2018-02-17T19:40:08.791Z,25.98
2018-02-17T19:42:12.013Z,49.50
2018-02-17T19:44:15.243Z,45.30
2018-02-17T19:46:18.811Z,30.60
2018-02-17T19:48:22.223Z,16.20
2018-02-17T19:50:25.409Z,13.27
2018-02-17T19:52:28.766Z,14.97
2018-02-17T19:54:31.973Z,15.13
2018-02-17T19:56:35.203Z,15.47
2018-02-17T19:58:39.174Z,18.23
2018-02-17T20:00:42.393Z,20.67
2018-02-17T20:02:45.634Z,14.70
2018-02-17T20:04:48.816Z,13.40
2018-02-17T20:06:52.078Z,12.60
2018-02-17T20:08:55.361Z,15.00
2018-02-17T20:10:58.643Z,14.43
2018-02-17T20:13:01.907Z,27.10
2018-02-17T20:15:05.095Z,38.70
2018-02-17T20:17:08.383Z,25.70
2018-02-17T20:19:11.641Z,19.27
2018-02-17T20:21:15.682Z,13.80
2018-02-17T20:23:19.818Z,11.98
2018-02-17T20:25:24.045Z,13.87
2018-02-17T20:27:28.073Z,16.42
2018-02-17T20:29:32.172Z,12.63
2018-02-17T20:31:38.091Z,13.98
2018-02-17T20:33:41.369Z,14.85
2018-02-17T20:35:44.605Z,13.60
2018-02-17T20:37:49.411Z,13.33
2018-02-17T20:39:52.762Z,13.33
2018-02-17T20:41:57.094Z,15.40
2018-02-17T20:44:00.536Z,13.23
2018-02-17T20:46:08.421Z,13.43
2018-02-17T20:48:12.761Z,17.23
2018-02-17T20:50:16.053Z,17.27
2018-02-17T20:52:20.838Z,14.97
2018-02-17T20:54:24.093Z,14.90
2018-02-17T20:56:27.825Z,16.53
2018-02-17T20:58:32.126Z,19.20
2018-02-17T21:00:35.414Z,15.90
2018-02-17T21:02:38.656Z,21.03
2018-02-17T21:04:41.975Z,15.00
2018-02-17T21:06:45.310Z,16.10
2018-02-17T21:08:48.519Z,14.50
2018-02-17T21:10:51.827Z,16.87
2018-02-17T21:12:54.991Z,18.27
2018-02-17T21:15:01.208Z,16.37
2018-02-17T21:17:04.972Z,18.42
2018-02-17T21:19:08.170Z,18.57
2018-02-17T21:21:11.483Z,16.73
2018-02-17T21:23:14.859Z,16.90
2018-02-17T21:25:18.880Z,18.25
2018-02-17T21:27:24.135Z,18.50
2018-02-17T21:29:27.946Z,19.83
2018-02-17T21:31:31.963Z,13.10
2018-02-17T21:33:36.886Z,14.35
2018-02-17T21:35:40.874Z,15.97
2018-02-17T21:37:45.228Z,14.60
2018-02-17T21:39:48.610Z,14.03
2018-02-17T21:41:52.699Z,14.90
2018-02-17T21:43:55.973Z,15.27
2018-02-17T21:46:02.379Z,14.57
2018-02-17T21:48:07.179Z,12.87
2018-02-17T21:50:10.411Z,18.42
2018-02-17T21:52:14.755Z,15.20
2018-02-17T21:54:19.694Z,14.10
2018-02-17T21:56:25.901Z,19.13
2018-02-17T21:58:29.561Z,16.30
2018-02-17T22:00:34.704Z,14.07
2018-02-17T22:02:40.139Z,15.00
2018-02-17T22:04:45.098Z,16.73
2018-02-17T22:06:49.246Z,15.67
2018-02-17T22:08:53.256Z,16.80
2018-02-17T22:10:57.754Z,18.50
2018-02-17T22:13:02.595Z,13.43
2018-02-17T22:15:06.687Z,18.58
2018-02-17T22:17:10.228Z,16.07
2018-02-17T22:19:13.410Z,16.77
2018-02-17T22:21:16.658Z,15.27
2018-02-17T22:23:20.037Z,18.70
2018-02-17T22:25:23.258Z,16.47
2018-02-17T22:27:26.451Z,13.83
2018-02-17T22:29:29.688Z,17.23
2018-02-17T22:31:32.906Z,13.23
2018-02-17T22:33:36.137Z,14.87
2018-02-17T22:35:40.102Z,13.67
2018-02-17T22:37:43.333Z,13.90
2018-02-17T22:39:46.590Z,15.07
2018-02-17T22:41:50.583Z,14.23
2018-02-17T22:43:59.378Z,14.87
2018-02-17T22:46:03.121Z,17.20
2018-02-17T22:48:07.834Z,16.27
2018-02-17T22:50:11.047Z,16.55
2018-02-17T22:52:18.419Z,14.30
2018-02-17T22:54:23.892Z,13.60
2018-02-17T22:56:27.848Z,12.65
2018-02-17T22:58:33.326Z,14.98
2018-02-17T23:00:37.789Z,16.63
2018-02-17T23:02:40.977Z,14.83
2018-02-17T23:04:47.441Z,12.77
2018-02-17T23:06:52.688Z,13.57
2018-02-17T23:09:00.111Z,16.97
2018-02-17T23:11:04.842Z,15.38
2018-02-17T23:28:38.327Z,12.47
2018-02-17T23:30:43.028Z,14.53
2018-02-17T23:35:34.859Z,12.32
